createdAt,value
2023-04-17T00:01:08.176Z,97618.63
2023-04-17T00:11:10.824Z,97623.91
2023-04-17T00:21:13.130Z,97600.44
2023-04-17T00:31:15.444Z,97603.78
2023-04-17T00:41:18.152Z,97604.00
2023-04-17T00:51:20.735Z,97607.72
2023-04-17T01:01:23.202Z,97611.03
2023-04-17T01:11:25.652Z,97611.25
2023-04-17T05:05:11.200Z,97688.19
2023-04-17T05:15:13.665Z,97692.94
2023-04-17T05:25:16.763Z,97690.63
2023-04-17T05:35:19.193Z,97686.81
2023-04-17T05:45:23.536Z,97698.41
2023-04-17T05:55:27.809Z,97702.19
2023-04-17T06:05:30.142Z,97699.97
2023-04-17T06:15:32.476Z,97702.38
2023-04-17T06:25:34.800Z,97707.22
2023-04-17T06:35:37.967Z,97710.19
2023-04-17T06:45:42.592Z,97714.06
2023-04-17T06:55:45.390Z,97723.94
2023-04-17T07:05:47.924Z,97738.88
2023-04-17T07:15:54.615Z,97744.97
2023-04-17T07:25:57.142Z,97755.78
2023-04-17T07:35:59.463Z,97753.25
2023-04-17T07:46:01.776Z,97755.41
2023-04-17T07:56:04.540Z,97751.41
2023-04-17T08:06:06.956Z,97751.22
2023-04-17T08:16:10.231Z,97749.22
2023-04-17T08:26:12.615Z,97751.34
2023-04-17T08:36:14.896Z,97754.28
2023-04-17T08:46:24.186Z,97763.66
2023-04-17T08:56:26.625Z,97763.94
2023-04-17T09:06:29.916Z,97756.75
2023-04-17T09:16:32.350Z,97758.44
2023-04-17T09:26:34.780Z,97750.72
2023-04-17T09:36:38.608Z,97766.63
2023-04-17T09:46:48.822Z,97760.34
2023-04-17T09:56:52.513Z,97769.31
2023-04-17T10:06:57.744Z,97762.41
2023-04-17T10:17:00.176Z,97771.06
2023-04-17T10:27:03.088Z,97769.81
2023-04-17T10:37:05.591Z,97754.31
2023-04-17T10:47:08.867Z,97744.75
2023-04-17T10:57:12.016Z,97739.75
2023-04-17T11:07:17.208Z,97743.00
2023-04-17T11:17:22.730Z,97734.56
2023-04-17T11:27:25.048Z,97735.69
2023-04-17T11:37:27.455Z,97742.81
2023-04-17T11:47:29.898Z,97741.00
2023-04-17T11:57:43.541Z,97735.81
2023-04-17T12:07:46.049Z,97746.72
2023-04-17T12:17:48.373Z,97745.03
2023-04-17T12:27:51.055Z,97747.19
2023-04-17T12:37:53.430Z,97741.50
2023-04-17T12:47:55.916Z,97736.88
2023-04-17T12:57:58.671Z,97739.53
2023-04-17T13:08:01.040Z,97743.50
2023-04-17T13:18:03.854Z,97749.66
2023-04-17T13:28:06.376Z,97751.03
2023-04-17T13:38:08.719Z,97750.25
2023-04-17T13:48:11.745Z,97752.84
2023-04-17T13:58:14.059Z,97752.13
2023-04-17T14:08:16.389Z,97758.94
2023-04-17T14:18:18.776Z,97756.31
2023-04-17T14:28:21.498Z,97760.88
2023-04-17T14:38:24.500Z,97785.09
2023-04-17T14:48:26.959Z,97797.69
2023-04-17T14:58:29.387Z,97812.41
2023-04-17T15:08:31.787Z,97812.09
2023-04-17T15:18:34.897Z,97814.59
2023-04-17T15:28:37.224Z,97822.03
2023-04-17T15:38:39.511Z,97826.19
2023-04-17T15:48:41.923Z,97827.06
2023-04-17T15:58:44.225Z,97828.50
2023-04-17T16:08:47.145Z,97832.28
2023-04-17T16:18:49.500Z,97836.72
2023-04-17T16:28:51.964Z,97845.75
2023-04-17T16:38:54.352Z,97849.22
2023-04-17T16:48:56.820Z,97856.34
2023-04-17T16:58:59.240Z,97852.84
2023-04-17T17:09:01.603Z,97863.31
2023-04-17T17:19:04.427Z,97873.75
2023-04-17T17:29:06.766Z,97877.94
2023-04-17T17:39:09.180Z,97896.56
2023-04-17T17:49:11.523Z,97900.16
2023-04-17T17:59:13.936Z,97904.41
2023-04-17T18:09:16.324Z,97907.16
2023-04-17T18:19:18.864Z,97910.31
2023-04-17T18:29:21.141Z,97918.59
2023-04-17T18:39:23.457Z,97928.84
2023-04-17T18:49:26.544Z,97933.06
2023-04-17T18:59:28.923Z,97947.81
2023-04-17T19:09:31.244Z,97954.25
2023-04-17T19:19:33.537Z,97953.19
2023-04-17T19:29:35.961Z,97955.09
2023-04-17T19:39:38.429Z,97944.06
2023-04-17T19:49:41.078Z,97955.75
2023-04-17T19:59:43.544Z,97947.44
2023-04-17T20:09:45.878Z,97940.38
2023-04-17T20:19:48.168Z,97947.25
2023-04-17T20:29:50.526Z,97941.38
2023-04-17T20:40:13.436Z,97940.91
2023-04-17T20:50:15.980Z,97941.00
2023-04-17T21:00:18.460Z,97939.91
2023-04-17T21:10:21.291Z,97945.16
2023-04-17T21:20:23.797Z,97948.88
2023-04-17T21:30:27.335Z,97948.88
2023-04-17T21:40:33.401Z,97943.19
2023-04-17T21:50:36.525Z,97945.91
2023-04-17T22:00:38.858Z,97936.38
2023-04-17T22:10:41.187Z,97938.28
2023-04-17T22:21:39.829Z,97939.59
2023-04-17T22:32:38.456Z,97938.72
2023-04-17T22:43:36.973Z,97941.97
2023-04-17T22:54:35.818Z,97942.81
2023-04-17T23:05:34.841Z,97942.81
2023-04-17T23:15:37.278Z,97943.56
2023-04-17T23:25:39.604Z,97938.13
2023-04-17T23:35:41.878Z,97929.16
2023-04-17T23:45:44.211Z,97927.09
2023-04-17T23:55:46.536Z,97909.53
